Time;durP1;ratioP1;P1;durP2;ratioP2;P2;SDS_P1;SDS_P2;PMS_P1;PMS_P2;Temp;Humidity;BMP_temperature;BMP_pressure;BME280_temperature;BME280_humidity;BME280_pressure;Samples;Min_cycle;Max_cycle;Signal;HPM_P1;HPM_P2
2022/06/03 00:00:50;;;;;;;12.50;11.27;;;;;;;9.13;96.32;102207.94;5050914;28;20435;-44
2022/06/03 00:03:41;;;;;;;13.10;11.80;;;;;;;9.10;96.40;102202.91;5051378;28;20427;-46
2022/06/03 00:06:27;;;;;;;12.83;11.77;;;;;;;9.08;96.67;102205.69;5050624;28;20459;-45
2022/06/03 00:09:34;;;;;;;10.97;10.17;;;;;;;9.05;96.21;102200.69;5050908;28;20446;-46
2022/06/03 00:12:16;;;;;;;13.07;12.00;;;;;;;9.00;96.47;102205.63;5035562;28;20431;-45
2022/06/03 00:15:08;;;;;;;13.70;12.10;;;;;;;9.00;96.66;102207.44;5051130;28;20435;-44
2022/06/03 00:17:51;;;;;;;14.50;13.13;;;;;;;8.99;96.66;102206.59;5050926;28;20458;-47
2022/06/03 00:20:32;;;;;;;11.03;10.27;;;;;;;8.96;96.33;102200.78;5054655;28;20423;-45
2022/06/03 00:23:33;;;;;;;11.93;11.03;;;;;;;8.95;96.52;102199.09;5054596;28;20999;-44
2022/06/03 00:26:20;;;;;;;13.90;12.67;;;;;;;8.88;96.58;102194.38;5054189;28;20453;-49
2022/06/03 00:29:05;;;;;;;13.70;12.40;;;;;;;8.87;96.92;102186.53;5054461;28;20433;-44
2022/06/03 00:31:56;;;;;;;12.37;11.23;;;;;;;8.85;96.64;102194.66;5054218;28;20441;-49
2022/06/03 00:34:49;;;;;;;14.53;13.20;;;;;;;8.82;96.66;102194.13;5054562;28;20454;-46
2022/06/03 00:37:32;;;;;;;12.83;11.70;;;;;;;8.79;96.34;102195.28;5053805;28;20471;-48
2022/06/03 00:40:11;;;;;;;13.50;12.40;;;;;;;8.77;96.65;102199.91;5054233;28;20824;-49
2022/06/03 00:43:06;;;;;;;14.67;13.57;;;;;;;8.76;96.92;102213.34;5054279;28;20441;-46
2022/06/03 00:45:55;;;;;;;14.23;13.23;;;;;;;8.74;96.83;102200.22;5052729;28;20443;-49
2022/06/03 00:48:40;;;;;;;15.07;13.77;;;;;;;8.74;96.93;102196.72;5033967;28;20456;-47
2022/06/03 00:51:49;;;;;;;17.13;12.50;;;;;;;8.74;97.22;102196.72;5033833;28;20440;-47
2022/06/03 00:54:45;;;;;;;15.63;14.10;;;;;;;8.75;97.43;102201.88;5013096;28;20436;-49
2022/06/03 00:57:43;;;;;;;15.10;13.90;;;;;;;8.78;97.51;102198.09;5033578;28;20468;-46
2022/06/03 01:00:18;;;;;;;14.90;13.67;;;;;;;8.82;97.41;102207.44;5033959;28;20436;-43
2022/06/03 01:03:10;;;;;;;13.90;12.70;;;;;;;8.85;97.87;102205.31;5033918;28;20930;-47
2022/06/03 01:05:52;;;;;;;14.20;12.40;;;;;;;8.93;97.97;102206.41;5033994;28;20424;-48
2022/06/03 01:08:33;;;;;;;14.20;13.10;;;;;;;8.97;98.10;102208.59;5033847;28;20440;-47
2022/06/03 01:11:18;;;;;;;14.00;12.80;;;;;;;9.01;98.00;102206.47;5033683;28;20527;-43
2022/06/03 01:14:09;;;;;;;13.53;12.37;;;;;;;9.07;97.83;102197.88;5033989;28;20432;-44
2022/06/03 01:16:51;;;;;;;14.30;13.33;;;;;;;9.07;97.95;102201.41;5040485;28;20468;-45
2022/06/03 01:19:55;;;;;;;12.47;11.53;;;;;;;9.08;97.85;102207.56;5053594;28;20800;-45
2022/06/03 01:22:50;;;;;;;12.73;11.70;;;;;;;9.07;97.80;102204.06;5053368;28;20613;-45
2022/06/03 01:25:36;;;;;;;13.47;12.03;;;;;;;9.07;97.95;102205.88;5053559;28;20438;-45
2022/06/03 01:28:39;;;;;;;13.40;12.37;;;;;;;9.06;97.82;102199.72;5033674;28;20463;-49
2022/06/03 01:31:30;;;;;;;14.47;13.40;;;;;;;9.04;98.08;102199.03;5032919;28;20436;-42
2022/06/03 01:34:10;;;;;;;14.10;12.80;;;;;;;9.02;97.95;102203.66;5046294;28;20805;-46
2022/06/03 01:36:52;;;;;;;14.47;13.37;;;;;;;8.99;97.79;102201.28;5059883;28;20465;-43
2022/06/03 01:39:34;;;;;;;15.93;14.47;;;;;;;8.98;97.79;102190.81;5073155;28;20525;-43
2022/06/03 01:42:38;;;;;;;14.30;13.20;;;;;;;8.93;98.12;102185.94;5072894;28;20961;-46
2022/06/03 01:45:44;;;;;;;14.10;12.90;;;;;;;8.89;97.77;102195.22;5041344;28;20951;-45
2022/06/03 01:48:29;;;;;;;14.60;13.20;;;;;;;8.84;97.85;102187.66;5054828;28;20446;-46
2022/06/03 01:51:22;;;;;;;15.90;13.17;;;;;;;8.77;97.61;102194.59;5072903;28;20415;-45
2022/06/03 01:54:28;;;;;;;14.37;13.17;;;;;;;8.71;97.52;102195.19;5073008;28;20434;-48
2022/06/03 01:57:10;;;;;;;14.83;13.53;;;;;;;8.65;97.83;102195.78;5070491;28;20778;-44
2022/06/03 02:00:08;;;;;;;20.03;14.50;;;;;;;8.58;97.67;102197.34;5073009;28;20788;-44
2022/06/03 02:03:21;;;;;;;15.37;14.00;;;;;;;8.57;97.91;102197.50;5073140;28;20444;-44
2022/06/03 02:06:24;;;;;;;14.50;13.20;;;;;;;8.54;97.71;102192.50;5047515;28;20431;-45
2022/06/03 02:09:16;;;;;;;14.43;13.30;;;;;;;8.54;98.08;102195.97;5072564;28;20441;-45
2022/06/03 02:12:24;;;;;;;14.97;13.50;;;;;;;8.56;98.06;102201.16;5072253;28;20442;-45
2022/06/03 02:15:19;;;;;;;14.03;12.83;;;;;;;8.59;98.07;102192.88;5072612;28;20792;-43
2022/06/03 02:18:12;;;;;;;14.17;13.07;;;;;;;8.63;98.49;102202.25;5071782;28;20491;-46
2022/06/03 02:21:22;;;;;;;14.00;12.70;;;;;;;8.67;98.42;102198.28;5072358;28;20431;-45
2022/06/03 02:24:08;;;;;;;14.90;13.73;;;;;;;8.73;98.30;102197.69;5072224;28;20426;-46
2022/06/03 02:27:12;;;;;;;14.27;13.07;;;;;;;8.77;98.52;102202.56;5071956;28;20493;-43
2022/06/03 02:30:27;;;;;;;16.43;14.93;;;;;;;8.84;98.66;102200.16;5072323;28;20505;-44
2022/06/03 02:33:24;;;;;;;17.37;15.77;;;;;;;8.89;98.33;102195.22;5072311;28;20426;-45
2022/06/03 02:36:17;;;;;;;15.47;14.10;;;;;;;8.93;98.50;102195.75;5053413;28;20461;-44
2022/06/03 02:39:00;;;;;;;16.43;14.43;;;;;;;8.95;98.44;102197.28;5063370;28;20434;-45
2022/06/03 02:41:54;;;;;;;17.43;15.73;;;;;;;9.00;98.60;102200.31;5071740;28;20800;-49
2022/06/03 02:44:48;;;;;;;16.20;14.80;;;;;;;9.04;98.71;102196.38;5072146;28;20430;-44
2022/06/03 02:48:13;;;;;;;16.13;14.73;;;;;;;9.09;98.68;102204.72;5071417;28;21136;-46
2022/06/03 02:51:04;;;;;;;19.67;17.97;;;;;;;9.12;98.54;102196.44;5071695;28;20924;-46
2022/06/03 02:54:09;;;;;;;18.17;16.60;;;;;;;9.14;98.63;102210.44;5071736;28;20436;-45
2022/06/03 02:56:52;;;;;;;20.87;18.97;;;;;;;9.16;98.73;102207.63;5071163;28;20481;-44
2022/06/03 02:59:41;;;;;;;21.13;19.23;;;;;;;9.21;98.79;102198.19;5071909;28;20464;-45
2022/06/03 03:02:35;;;;;;;20.30;18.30;;;;;;;9.25;98.77;102204.06;5071819;28;20796;-48
2022/06/03 03:05:20;;;;;;;20.97;19.17;;;;;;;9.29;98.67;102203.59;5071751;28;20426;-43
2022/06/03 03:08:13;;;;;;;19.77;17.97;;;;;;;9.32;98.49;102199.78;5071201;28;20457;-46
2022/06/03 03:11:02;;;;;;;22.60;20.30;;;;;;;9.36;98.66;102202.00;5071365;28;20447;-46
2022/06/03 03:14:02;;;;;;;21.80;19.90;;;;;;;9.38;98.51;102196.50;5071696;28;20437;-44
2022/06/03 03:16:43;;;;;;;21.57;19.63;;;;;;;9.43;98.71;102205.72;5070963;28;20470;-44
2022/06/03 03:19:37;;;;;;;22.30;20.40;;;;;;;9.50;98.68;102202.44;5071586;28;20466;-48
2022/06/03 03:22:31;;;;;;;19.93;18.17;;;;;;;9.55;98.67;102201.00;5071451;28;20442;-44
2022/06/03 03:25:31;;;;;;;20.53;18.83;;;;;;;9.60;98.64;102195.19;5071509;28;20944;-43
2022/06/03 03:28:28;;;;;;;22.63;20.33;;;;;;;9.65;98.71;102199.06;5071125;28;20468;-43
2022/06/03 03:31:16;;;;;;;21.90;19.80;;;;;;;9.70;98.76;102195.94;5066768;28;20808;-47
2022/06/03 03:34:07;;;;;;;21.43;19.37;;;;;;;9.75;98.68;102196.28;5063204;28;20426;-44
2022/06/03 03:37:05;;;;;;;22.13;20.10;;;;;;;9.83;98.54;102202.50;5070870;28;20466;-46
2022/06/03 03:39:59;;;;;;;23.90;21.50;;;;;;;9.88;98.56;102205.56;5071341;28;20792;-42
2022/06/03 03:42:50;;;;;;;19.30;17.67;;;;;;;9.98;98.67;102200.13;5071271;28;20434;-49
2022/06/03 03:45:49;;;;;;;19.87;18.37;;;;;;;10.08;98.53;102194.69;5071356;28;20430;-42
2022/06/03 03:49:01;;;;;;;18.70;17.00;;;;;;;10.20;98.58;102204.09;5067022;28;20516;-43
2022/06/03 03:51:52;;;;;;;16.90;15.57;;;;;;;10.31;98.60;102201.16;5071317;28;20434;-46
2022/06/03 03:54:52;;;;;;;19.80;18.13;;;;;;;10.37;98.63;102204.03;5075414;28;20426;-45
2022/06/03 03:57:47;;;;;;;19.50;17.70;;;;;;;10.43;98.42;102213.22;5074428;28;20478;-43
2022/06/03 04:00:32;;;;;;;17.90;16.40;;;;;;;10.50;98.31;102216.94;5074790;28;20430;-44
2022/06/03 04:03:41;;;;;;;18.23;16.83;;;;;;;10.59;98.29;102218.63;5075176;28;20981;-43
2022/06/03 04:06:54;;;;;;;17.90;16.53;;;;;;;10.65;97.98;102215.31;5074470;28;20462;-44
2022/06/03 04:10:10;;;;;;;16.90;15.60;;;;;;;10.79;98.25;102216.53;5074768;28;20528;-48
2022/06/03 04:13:19;;;;;;;18.70;17.10;;;;;;;10.88;97.82;102218.22;5074772;28;20433;-43
2022/06/03 04:16:39;;;;;;;16.43;15.17;;;;;;;10.93;97.75;102223.94;5059252;28;20457;-46
2022/06/03 04:19:52;;;;;;;15.60;14.50;;;;;;;11.09;97.67;102222.13;5074855;28;20474;-44
2022/06/03 04:23:00;;;;;;;15.10;13.53;;;;;;;11.17;97.49;102217.81;5074523;28;20939;-44
2022/06/03 04:25:45;;;;;;;12.03;10.73;;;;;;;11.20;96.84;102220.13;5074841;28;20430;-47
2022/06/03 04:28:42;;;;;;;12.07;11.33;;;;;;;11.41;97.29;102220.50;5074260;28;20466;-46
2022/06/03 04:31:41;;;;;;;13.97;12.67;;;;;;;11.63;97.50;102227.84;5074144;28;20434;-46
2022/06/03 04:34:43;;;;;;;14.20;11.07;;;;;;;11.79;96.72;102227.03;5069135;28;20426;-45
2022/06/03 04:37:43;;;;;;;10.93;10.00;;;;;;;11.88;94.79;102216.16;5073893;28;20472;-48
2022/06/03 04:40:58;;;;;;;10.63;9.50;;;;;;;11.98;91.59;102213.28;5074394;28;20430;-48
2022/06/03 04:44:25;;;;;;;10.60;9.90;;;;;;;12.30;91.71;102218.59;5074315;28;20434;-46
2022/06/03 04:47:45;;;;;;;11.20;9.97;;;;;;;12.79;91.95;102229.91;5073717;28;20984;-45
2022/06/03 04:50:53;;;;;;;11.03;10.20;;;;;;;12.88;88.97;102228.84;5073831;28;20521;-47
2022/06/03 04:54:11;;;;;;;10.27;9.67;;;;;;;12.90;85.80;102228.69;5074156;28;20525;-46
2022/06/03 04:57:05;;;;;;;12.67;10.33;;;;;;;12.94;85.42;102219.28;5073394;28;20474;-44
2022/06/03 05:00:02;;;;;;;11.23;10.33;;;;;;;13.10;86.23;102227.25;5074104;28;20430;-46
2022/06/03 05:03:07;;;;;;;12.77;10.50;;;;;;;13.23;85.93;102222.97;5073348;28;20441;-45
2022/06/03 05:06:05;;;;;;;9.40;8.70;;;;;;;13.45;86.09;102224.00;5073972;28;20448;-47
2022/06/03 05:09:21;;;;;;;10.67;9.60;;;;;;;13.76;85.68;102231.97;5073526;28;20461;-47
2022/06/03 05:12:31;;;;;;;10.77;9.57;;;;;;;14.01;83.26;102233.38;5073688;28;20453;-47
2022/06/03 05:15:27;;;;;;;9.80;8.90;;;;;;;14.15;80.27;102232.59;5073599;28;20792;-49
2022/06/03 05:18:45;;;;;;;10.17;9.20;;;;;;;14.34;79.11;102233.88;5073018;28;20483;-47
2022/06/03 05:21:45;;;;;;;10.67;9.77;;;;;;;14.21;76.29;102226.47;5073315;28;20456;-46
2022/06/03 05:24:57;;;;;;;9.87;8.80;;;;;;;13.61;72.54;102223.03;5073700;28;20431;-45
2022/06/03 05:28:04;;;;;;;11.30;9.47;;;;;;;13.68;75.64;102238.22;5072701;28;20944;-47
2022/06/03 05:30:53;;;;;;;10.63;9.80;;;;;;;14.16;77.66;102226.19;5073182;28;20440;-47
2022/06/03 05:33:58;;;;;;;8.33;7.73;;;;;;;14.89;69.25;102225.31;5069583;28;20812;-48
2022/06/03 05:36:55;;;;;;;6.93;6.27;;;;;;;16.64;66.63;102219.97;5052906;28;20558;-45
2022/06/03 05:39:35;;;;;;;7.80;6.50;;;;;;;17.14;64.37;102216.84;5053025;28;20471;-48
2022/06/03 05:42:30;;;;;;;7.17;6.47;;;;;;;17.35;61.19;102213.94;5052941;28;20430;-44
2022/06/03 05:45:35;;;;;;;7.70;6.90;;;;;;;17.30;59.88;102221.00;5053162;28;20434;-45
2022/06/03 05:48:09;;;;;;;7.43;6.80;;;;;;;17.27;59.54;102216.84;5052537;28;20482;-46
2022/06/03 05:50:48;;;;;;;6.40;5.90;;;;;;;18.30;58.07;102223.50;5052659;28;20431;-44
2022/06/03 05:53:38;;;;;;;7.00;6.30;;;;;;;18.07;55.31;102226.66;5053072;28;20431;-46
2022/06/03 05:56:32;;;;;;;7.93;7.40;;;;;;;17.25;55.98;102218.94;5052450;28;20462;-45
2022/06/03 05:59:10;;;;;;;7.40;6.70;;;;;;;17.23;59.56;102229.09;5052560;28;20475;-47
2022/06/03 06:01:49;;;;;;;8.47;6.70;;;;;;;17.30;55.73;102224.53;5052731;28;20442;-47
2022/06/03 06:04:25;;;;;;;7.07;6.37;;;;;;;17.30;56.18;102224.53;5052825;28;20427;-50
2022/06/03 06:07:04;;;;;;;9.27;7.23;;;;;;;16.86;58.01;102227.75;5066000;28;20469;-46
2022/06/03 06:09:45;;;;;;;10.40;7.10;;;;;;;17.44;57.26;102228.09;5072418;28;20429;-43
2022/06/03 06:12:21;;;;;;;5.87;5.47;;;;;;;17.77;57.75;102215.47;5072488;28;20426;-48
2022/06/03 06:15:10;;;;;;;6.67;6.17;;;;;;;19.17;52.17;102216.50;5071803;28;20433;-50
2022/06/03 06:17:49;;;;;;;7.30;6.70;;;;;;;20.32;49.43;102213.25;5071626;28;20470;-46
2022/06/03 06:20:27;;;;;;;6.93;5.80;;;;;;;20.94;45.58;102208.53;5072047;28;20939;-52
2022/06/03 06:23:02;;;;;;;6.67;6.00;;;;;;;21.13;46.82;102207.47;5072590;28;20456;-45
2022/06/03 06:25:37;;;;;;;5.77;5.30;;;;;;;21.87;43.08;102201.44;5072287;28;20429;-47
2022/06/03 06:28:06;;;;;;;5.83;5.43;;;;;;;22.14;45.96;102206.41;5071607;28;20502;-45
2022/06/03 06:31:04;;;;;;;6.83;6.13;;;;;;;22.74;42.79;102205.03;5072056;28;20436;-51
2022/06/03 06:33:50;;;;;;;7.70;5.93;;;;;;;23.03;41.33;102206.66;5069564;28;20795;-48
2022/06/03 06:36:57;;;;;;;6.37;5.87;;;;;;;23.77;39.55;102202.00;5071341;28;20971;-50
2022/06/03 06:39:52;;;;;;;7.30;5.90;;;;;;;23.47;39.92;102201.50;5072098;28;20473;-48
2022/06/03 06:42:33;;;;;;;5.97;5.37;;;;;;;22.58;43.47;102201.13;5071863;28;20450;-50
2022/06/03 06:45:16;;;;;;;8.27;5.50;;;;;;;22.78;46.00;102203.47;5072000;28;20425;-44
2022/06/03 06:47:52;;;;;;;6.57;5.97;;;;;;;23.18;43.48;102203.41;5071471;28;21050;-45
2022/06/03 06:50:24;;;;;;;6.47;5.80;;;;;;;22.75;44.31;102203.97;5071820;28;20428;-47
2022/06/03 06:53:00;;;;;;;6.00;5.50;;;;;;;23.58;40.80;102195.97;5071935;28;20935;-50
2022/06/03 06:55:41;;;;;;;5.43;5.00;;;;;;;24.20;39.68;102185.75;5072104;28;20434;-46
2022/06/03 06:58:26;;;;;;;5.50;5.00;;;;;;;24.08;39.84;102192.34;5071178;28;20457;-45
2022/06/03 07:00:57;;;;;;;6.37;5.70;;;;;;;24.31;42.17;102196.81;5071701;28;20430;-46
2022/06/03 07:03:49;;;;;;;6.07;4.73;;;;;;;24.85;39.07;102189.56;5071702;28;20437;-44
2022/06/03 07:06:24;;;;;;;5.57;5.27;;;;;;;25.21;40.80;102194.28;5071494;28;20461;-46
2022/06/03 07:08:59;;;;;;;7.20;5.40;;;;;;;25.77;36.16;102185.53;5071554;28;20433;-46
2022/06/03 07:11:31;;;;;;;7.57;5.20;;;;;;;26.39;40.12;102185.63;5071486;28;20433;-46
2022/06/03 07:14:06;;;;;;;4.40;3.80;;;;;;;27.42;35.45;102194.63;5072015;28;20430;-47
2022/06/03 07:19:50;;;;;;;5.10;4.80;;;;;;;27.48;37.13;102196.28;5071706;28;20341;-48
2022/06/03 07:22:25;;;;;;;5.27;4.87;;;;;;;27.53;36.69;102200.13;5071328;28;20441;-50
2022/06/03 07:24:59;;;;;;;6.10;5.17;;;;;;;27.62;31.42;102191.09;5071730;28;20432;-49
2022/06/03 07:27:30;;;;;;;5.57;5.07;;;;;;;27.38;32.55;102189.97;5074587;28;20612;-49
2022/06/03 07:30:06;;;;;;;5.90;5.00;;;;;;;27.18;34.44;102190.75;5075690;28;20214;-43
2022/06/03 07:32:41;;;;;;;5.83;5.10;;;;;;;26.82;35.21;102186.34;5067015;28;20430;-45
2022/06/03 07:35:18;;;;;;;5.37;4.87;;;;;;;26.49;35.60;102178.53;5075854;28;20269;-50
2022/06/03 07:37:52;;;;;;;5.30;4.53;;;;;;;26.69;37.16;102182.16;5074999;28;20465;-50
2022/06/03 07:40:24;;;;;;;4.87;4.47;;;;;;;26.83;37.87;102183.31;5075254;28;20477;-49
2022/06/03 07:43:01;;;;;;;6.00;5.50;;;;;;;26.72;33.63;102181.63;5075330;28;20437;-47
2022/06/03 07:45:40;;;;;;;8.40;5.23;;;;;;;26.64;34.73;102187.59;5074772;28;20656;-46
2022/06/03 07:48:14;;;;;;;5.50;5.00;;;;;;;26.70;36.71;102178.31;5074916;28;20573;-46
2022/06/03 07:50:48;;;;;;;5.40;5.00;;;;;;;26.45;34.29;102183.72;5075078;28;20418;-45
2022/06/03 07:53:24;;;;;;;5.83;5.30;;;;;;;26.06;36.05;102183.22;5075568;28;20411;-47
2022/06/03 07:55:54;;;;;;;6.60;5.00;;;;;;;25.57;36.43;102176.31;5074766;28;20424;-48
2022/06/03 07:58:24;;;;;;;6.13;5.60;;;;;;;25.24;35.46;102166.47;5075119;28;20954;-47
2022/06/03 08:00:53;;;;;;;5.63;5.20;;;;;;;24.11;37.88;102175.53;5074862;28;20480;-45
2022/06/03 08:03:23;;;;;;;6.87;5.80;;;;;;;23.48;38.43;102181.34;5075104;28;20426;-47
2022/06/03 08:05:56;;;;;;;6.37;5.67;;;;;;;22.90;40.69;102173.50;5074319;28;20426;-46
2022/06/03 08:11:24;;;;;;;7.17;6.57;;;;;;;22.09;40.42;102174.53;5074798;28;20445;-46
2022/06/03 08:13:54;;;;;;;6.70;6.10;;;;;;;21.94;41.12;102177.75;5074679;28;20436;-48
2022/06/03 08:16:30;;;;;;;7.67;6.87;;;;;;;21.49;41.95;102180.19;5074083;28;20462;-43
2022/06/03 08:19:03;;;;;;;6.83;6.13;;;;;;;21.38;43.07;102183.72;5074683;28;20426;-45
2022/06/03 08:21:35;;;;;;;6.87;6.27;;;;;;;20.83;44.31;102171.34;5074621;28;20444;-49
2022/06/03 08:24:06;;;;;;;7.03;5.90;;;;;;;20.75;44.88;102179.81;5074726;28;20434;-44
2022/06/03 08:26:35;;;;;;;6.57;5.97;;;;;;;20.68;45.27;102179.06;5074166;28;20462;-44
2022/06/03 08:29:12;;;;;;;6.87;6.17;;;;;;;20.08;47.07;102178.06;5074467;28;20436;-44
2022/06/03 08:31:42;;;;;;;6.80;6.20;;;;;;;19.87;47.73;102184.75;5072247;28;20429;-49
2022/06/03 08:34:17;;;;;;;7.30;6.70;;;;;;;20.07;47.93;102176.44;5069061;28;20425;-45
2022/06/03 08:36:44;;;;;;;6.57;5.67;;;;;;;20.39;46.08;102181.50;5073883;28;20473;-49
2022/06/03 08:39:17;;;;;;;11.10;6.70;;;;;;;20.37;45.96;102182.78;5073506;28;20430;-46
2022/06/03 08:41:56;;;;;;;7.23;6.53;;;;;;;20.14;47.45;102193.44;5073995;28;20931;-44
2022/06/03 08:44:35;;;;;;;7.77;7.03;;;;;;;20.28;46.79;102192.28;5074413;28;20426;-46
2022/06/03 08:47:12;;;;;;;8.20;6.40;;;;;;;20.49;46.77;102196.41;5073709;28;20462;-45
2022/06/03 08:49:51;;;;;;;7.97;7.17;;;;;;;20.02;46.32;102198.75;5074133;28;20525;-49
2022/06/03 08:52:24;;;;;;;8.43;6.53;;;;;;;20.07;47.06;102193.50;5073964;28;20440;-47
2022/06/03 08:54:56;;;;;;;10.33;5.93;;;;;;;20.29;47.48;102189.34;5074195;28;20437;-47
2022/06/03 08:57:34;;;;;;;6.30;5.83;;;;;;;20.79;46.92;102199.97;5073629;28;20461;-47
2022/06/03 09:00:08;;;;;;;8.50;7.10;;;;;;;20.60;45.83;102204.59;5073670;28;20477;-46
2022/06/03 09:02:45;;;;;;;6.67;6.10;;;;;;;20.61;46.09;102211.66;5073987;28;20444;-45
2022/06/03 09:05:20;;;;;;;6.80;5.87;;;;;;;20.98;45.81;102209.72;5073965;28;20429;-44
2022/06/03 09:07:53;;;;;;;6.17;5.67;;;;;;;21.10;45.46;102212.50;5073373;28;20496;-47
2022/06/03 09:10:26;;;;;;;7.93;7.23;;;;;;;20.88;45.14;102212.97;5073436;28;20441;-46
2022/06/03 09:13:00;;;;;;;6.50;5.90;;;;;;;21.26;45.92;102220.00;5073875;28;20537;-48
2022/06/03 09:15:34;;;;;;;7.30;6.80;;;;;;;20.83;47.04;102215.56;5073943;28;20429;-45
2022/06/03 09:18:08;;;;;;;7.20;6.33;;;;;;;20.89;46.95;102208.38;5073106;28;20466;-45
2022/06/03 09:20:42;;;;;;;6.87;6.37;;;;;;;21.12;46.30;102208.50;5073321;28;20480;-46
2022/06/03 09:23:12;;;;;;;7.40;6.70;;;;;;;21.30;45.72;102205.72;5073493;28;20448;-44
2022/06/03 09:25:44;;;;;;;8.77;8.00;;;;;;;21.01;45.52;102208.44;5073686;28;20430;-46
2022/06/03 09:28:18;;;;;;;7.73;7.00;;;;;;;21.18;46.55;102212.19;5073225;28;20442;-48
2022/06/03 09:30:47;;;;;;;9.10;7.47;;;;;;;21.09;46.24;102211.69;5073739;28;20428;-48
2022/06/03 09:33:19;;;;;;;8.50;7.80;;;;;;;20.86;48.03;102214.28;5064899;28;20433;-45
2022/06/03 09:35:49;;;;;;;7.37;6.73;;;;;;;21.18;47.23;102215.72;5072775;28;20903;-43
2022/06/03 09:38:20;;;;;;;8.63;7.83;;;;;;;21.21;46.53;102211.72;5073461;28;20430;-45
2022/06/03 09:40:49;;;;;;;7.20;6.50;;;;;;;21.14;47.68;102211.00;5072907;28;20476;-46
2022/06/03 09:43:19;;;;;;;8.73;7.07;;;;;;;21.20;46.38;102212.78;5073259;28;20430;-46
2022/06/03 09:45:50;;;;;;;7.97;7.30;;;;;;;21.27;46.88;102216.22;5072554;28;20430;-47
2022/06/03 09:48:24;;;;;;;6.60;6.10;;;;;;;21.43;46.92;102216.41;5073275;28;20784;-47
2022/06/03 09:50:54;;;;;;;7.77;6.50;;;;;;;21.55;46.28;102219.13;5071896;28;20429;-47
2022/06/03 09:53:26;;;;;;;6.83;6.33;;;;;;;21.70;46.51;102215.97;5072979;28;20488;-43
2022/06/03 09:55:56;;;;;;;7.00;6.50;;;;;;;21.92;45.93;102206.22;5072392;28;20453;-47
2022/06/03 09:58:29;;;;;;;5.57;5.27;;;;;;;21.90;45.77;102192.03;5072833;28;20792;-46
2022/06/03 10:00:58;;;;;;;7.80;7.30;;;;;;;21.77;45.98;102201.22;5072726;28;20512;-43
2022/06/03 10:03:28;;;;;;;7.40;6.80;;;;;;;21.53;46.90;102199.53;5072893;28;20429;-47
2022/06/03 10:05:59;;;;;;;7.57;6.93;;;;;;;21.40;46.32;102203.28;5072280;28;20433;-43
2022/06/03 10:12:48;;;;;;;7.87;7.27;;;;;;;21.61;46.36;102201.91;5072524;28;20422;-44
2022/06/03 10:14:03;;;;;;;7.63;6.93;;;;;;;21.83;45.72;102200.25;5072551;28;20434;-44
2022/06/03 10:16:31;;;;;;;7.03;6.47;;;;;;;21.95;46.29;102201.13;5071866;28;20465;-47
2022/06/03 10:19:00;;;;;;;7.10;6.60;;;;;;;22.10;46.40;102197.13;5072477;28;20457;-49
2022/06/03 10:21:32;;;;;;;9.03;8.33;;;;;;;22.12;46.11;102194.97;5072006;28;20474;-46
2022/06/03 10:24:03;;;;;;;8.70;8.10;;;;;;;21.91;44.90;102191.81;5072456;28;20430;-44
2022/06/03 10:26:41;;;;;;;7.47;7.07;;;;;;;21.51;45.52;102182.66;5071911;28;20465;-46
2022/06/03 10:29:13;;;;;;;8.50;7.80;;;;;;;21.28;47.23;102183.44;5072335;28;20465;-44
2022/06/03 10:31:50;;;;;;;8.27;7.47;;;;;;;20.97;48.06;102189.06;5071927;28;20433;-46
2022/06/03 10:34:24;;;;;;;8.03;7.30;;;;;;;20.54;48.81;102185.72;5072448;28;20512;-48
2022/06/03 10:36:54;;;;;;;8.17;7.37;;;;;;;20.74;48.84;102195.25;5071699;28;20479;-49
2022/06/03 10:39:27;;;;;;;7.63;6.70;;;;;;;20.98;46.88;102197.00;5072246;28;20456;-44
2022/06/03 10:41:58;;;;;;;6.70;6.30;;;;;;;20.66;48.15;102192.03;5071892;28;20920;-46
2022/06/03 10:44:28;;;;;;;7.70;6.67;;;;;;;20.93;48.48;102190.63;5071953;28;20436;-44
2022/06/03 10:46:58;;;;;;;8.00;7.37;;;;;;;20.98;46.32;102190.75;5071725;28;20469;-44
2022/06/03 10:49:29;;;;;;;7.30;6.90;;;;;;;20.82;48.58;102181.34;5072195;28;20448;-44
2022/06/03 11:03:07;;;;;;;7.00;6.50;;;;;;;20.70;49.46;102161.50;5071672;28;20559;-44
2022/06/03 11:05:38;;;;;;;7.17;6.67;;;;;;;20.40;50.33;102164.19;5071760;28;20915;-44
2022/06/03 11:08:08;;;;;;;7.13;6.63;;;;;;;20.33;47.17;102158.03;5071200;28;20836;-45
2022/06/03 11:10:39;;;;;;;7.90;7.30;;;;;;;20.51;49.14;102157.19;5071432;28;20444;-45
2022/06/03 11:13:24;;;;;;;7.03;6.63;;;;;;;20.52;50.11;102158.81;5071736;28;20521;-44
2022/06/03 11:15:52;;;;;;;7.07;6.40;;;;;;;20.55;49.18;102157.56;5071238;28;20429;-47
2022/06/03 11:18:25;;;;;;;7.40;6.77;;;;;;;20.31;49.09;102154.72;5071600;28;20919;-51
2022/06/03 11:20:54;;;;;;;8.27;7.77;;;;;;;20.62;49.15;102152.88;5071371;28;20476;-44
2022/06/03 11:23:23;;;;;;;7.33;6.83;;;;;;;20.87;48.03;102140.00;5071579;28;20434;-45
2022/06/03 11:25:53;;;;;;;5.90;5.50;;;;;;;21.05;48.69;102137.25;5071021;28;20799;-44
2022/06/03 11:28:27;;;;;;;7.93;7.23;;;;;;;21.44;46.73;102128.47;5071757;28;20799;-46
2022/06/03 11:31:15;;;;;;;8.03;7.63;;;;;;;21.55;46.56;102136.88;5071275;28;20464;-47
2022/06/03 11:33:47;;;;;;;8.23;7.50;;;;;;;21.46;47.16;102137.22;5063118;28;20475;-44
2022/06/03 11:36:21;;;;;;;7.17;6.77;;;;;;;21.11;47.91;102133.63;5070377;28;20457;-46
2022/06/03 11:38:53;;;;;;;7.10;6.70;;;;;;;21.52;47.47;102128.13;5071682;28;20433;-49
2022/06/03 11:41:25;;;;;;;7.93;7.13;;;;;;;21.87;46.86;102124.56;5071446;28;20469;-46
2022/06/03 11:44:09;;;;;;;6.97;6.40;;;;;;;22.11;44.66;102130.81;5071430;28;20433;-46
2022/06/03 11:46:38;;;;;;;6.30;5.93;;;;;;;22.26;45.66;102123.00;5070983;28;20477;-45
2022/06/03 11:49:08;;;;;;;6.17;5.77;;;;;;;22.50;44.93;102119.97;5071259;28;20441;-46
2022/06/03 11:51:37;;;;;;;5.90;5.60;;;;;;;22.64;44.03;102116.97;5069633;28;20931;-45
2022/06/03 11:54:11;;;;;;;9.30;6.40;;;;;;;22.60;42.80;102114.72;5071286;28;20803;-48
2022/06/03 11:56:39;;;;;;;7.07;6.10;;;;;;;22.64;43.26;102116.97;5070881;28;20809;-49
2022/06/03 11:59:13;;;;;;;6.17;5.87;;;;;;;22.23;43.69;102116.16;5071153;28;20433;-49
2022/06/03 12:01:56;;;;;;;5.27;5.00;;;;;;;22.46;44.65;102110.63;5070790;28;20470;-46
2022/06/03 12:04:41;;;;;;;6.00;5.50;;;;;;;22.77;44.00;102113.97;5070940;28;20882;-46
2022/06/03 12:07:22;;;;;;;6.37;5.97;;;;;;;22.92;44.57;102104.19;5070674;28;20471;-44
2022/06/03 12:09:58;;;;;;;6.63;6.03;;;;;;;23.05;42.85;102105.78;5070894;28;20558;-45
2022/06/03 12:15:33;;;;;;;6.53;6.10;;;;;;;22.16;43.66;102096.44;5074750;28;20437;-47
2022/06/03 12:18:37;;;;;;;5.60;5.23;;;;;;;22.25;42.04;102092.28;5074151;28;20468;-47
2022/06/03 12:21:06;;;;;;;5.80;5.30;;;;;;;21.75;42.75;102091.16;5073987;28;20855;-44
2022/06/03 12:23:54;;;;;;;4.90;4.50;;;;;;;21.87;40.80;102087.38;5074549;28;20429;-43
2022/06/03 12:26:29;;;;;;;4.77;4.57;;;;;;;21.93;41.57;102080.19;5073967;28;20477;-44
2022/06/03 12:29:09;;;;;;;5.60;5.30;;;;;;;21.78;41.16;102080.66;5072409;28;20433;-48
2022/06/03 12:31:41;;;;;;;5.57;5.17;;;;;;;21.84;41.06;102077.00;5071910;28;20859;-48
2022/06/03 12:34:22;;;;;;;4.57;4.27;;;;;;;22.32;41.24;102078.53;5068249;28;20410;-47
2022/06/03 12:36:54;;;;;;;5.37;4.97;;;;;;;22.24;39.63;102078.94;5073795;28;20548;-47
2022/06/03 12:39:31;;;;;;;4.20;4.00;;;;;;;21.85;41.97;102075.94;5074555;28;20440;-46
2022/06/03 12:42:29;;;;;;;5.80;5.20;;;;;;;21.80;43.81;102070.38;5073701;28;20480;-46
2022/06/03 12:45:33;;;;;;;4.80;4.50;;;;;;;22.44;40.23;102073.88;5074072;28;20924;-47
2022/06/03 12:48:01;;;;;;;5.27;4.80;;;;;;;22.41;38.36;102074.38;5073204;28;20474;-44
2022/06/03 12:51:05;;;;;;;5.10;4.60;;;;;;;22.23;41.33;102075.38;5073926;28;20453;-45
2022/06/03 12:53:39;;;;;;;4.80;4.40;;;;;;;22.13;41.08;102066.22;5073672;28;20440;-48
2022/06/03 12:56:12;;;;;;;4.97;4.60;;;;;;;21.75;42.56;102070.28;5073550;28;20457;-46
2022/06/03 12:58:47;;;;;;;5.00;4.40;;;;;;;21.58;41.39;102069.34;5073338;28;20873;-45
2022/06/03 13:01:30;;;;;;;4.93;4.37;;;;;;;21.82;43.50;102065.56;5072914;28;20440;-50
2022/06/03 13:04:43;;;;;;;4.93;4.63;;;;;;;21.63;44.41;102064.03;5073314;28;20445;-45